Millersville, MD (21108)

3:44 AM EDT on July 04, 2015 (GMT -0400)
MID-ATLANTIC TOWER | | Change Station
CLOSE
Current Station
Personal Weather Station
Location: Millersville, MD
Elevation: 125 ft
Nearby Weather Stations
Active Advisory: Coastal Flood Advisory

Elev 125 ft 39.10 °N, 76.62 °W | Updated 4 seconds ago

Overcast
Overcast
71.8 °F
Feels Like 73 °F
N
0.0
Wind Variable Wind from SW

Today
High -- | Low -- °F
--% Chance of Precip.
Yesterday
High -- | Low -- °F
Precip. -- in
5:45 AM 8:35 PM
Waning Gibbous, 94% visible
Pressure 29.91 in
Visibility 10.0 miles
Clouds Few 2400 ft
Mostly Cloudy 6500 ft
Overcast 9000 ft
Heat Index 73 °F
Dew Point 63 °F
Humidity 75%
Rainfall 0.00 in
Snow Depth Not available.
UV 0.0 out of 12
Pollen .50 out of 12
Air Quality Not available.
Flu Activity Not available.
METAR KBWI 040654Z 09003KT 10SM FEW024 BKN065 OVC090 21/19 A2991 RMK AO2 RAB39E48 SLP127 P0000 T02110189

More Conditions Fewer Conditions

Pressure 29.91 in
Visibility 10.0 miles
Clouds Few 2400 ft
Mostly Cloudy 6500 ft
Overcast 9000 ft
Heat Index 73 °F
Dew Point 63 °F
Humidity 75%
Rainfall 0.00 in
Snow Depth Not available.
UV 0.0 out of 12
Pollen .50 out of 12
Air Quality Not available.
Flu Activity Not available.
METAR KBWI 040654Z 09003KT 10SM FEW024 BKN065 OVC090 21/19 A2991 RMK AO2 RAB39E48 SLP127 P0000 T02110189

More Conditions Fewer Conditions

10-Day Weather Forecast

×

Almanac

Astronomy

Jul. 04, 2015 Rise Set
Actual Time
Civil Twilight
Nautical Twilight
Astronomical Twilight
Moon
Length of Visible Light
Length of Day
Tomorrow will be .
, % of the Moon is Illuminated

Today's Extremes

State Highs State Lows

Community

WunderPhotos

Upload Photos

1,834,930 photos uploaded!

WunderBlogs® & News

Nearby

Air Quality

  Air Quality AQ Index Pollutant
Not available.

Snow Depth

Station Depth Elevation

Earthquake Activity

City Distance Mag. Time & Date
Minimum magnitude displayed is 2.5.

Coastal Water Temperatures

Place Temperature

Stations

Nearby Weather Stations

Station Location Temp. Windchill Dew Point Humidity Wind Precip. Elev Updated Type
                   
Coastal Flood Advisory
Statement as of 3:14 AM EDT on July 04, 2015

... Coastal Flood Advisory remains in effect until noon EDT
today...

* tidal anomaly... increasing to around one-foot above normal.

* Timing... around the morning high tide.

* Expected impacts... minor shoreline inundation.

Here is the time of the morning high tides

On the Chesapeake Bay...

Bowley Bar... 10:09 am...
Fort McHenry Baltimore... 8:56 am...
Annapolis U.S. Naval Academy... 7:38 am...

Now along the Potomac River...
Washington Channel... 10:13 am...
Alexandria... 10:31 am...

Precautionary/preparedness actions...

A coastal Flood Advisory indicates that onshore winds and tides
will combine to generate flooding of low areas along the shore.



Jackson